Tubac, Arizona
Current Conditions -  °F | °C
As of 5:54 PM on Saturday 20 Dec 2014 (Local Time) from KOLS Reporting Station
Clear Clear  
Wind Chill: 53°   Ceiling: Unl
Heat Index: 53°   Visibility: 10mi
Dew Point: 24°   Wind: 5mph
Humidity: 32%   Direction: 20°NNE
Pressure: 30.08"   Gusts: NA
Location:  31.61°N, 111.05°W
Report Text: KOLS 210054Z AUTO 02004KT 10SM CLR 12/M04 A3008 RMK AO2 SLP171 T01171044
Loading
Personal Weather Stations






























Interactive Weather Map New forecast layout! Learn more

10-Day Weather Forecast

Advertisements
Track Severe Weather on mobile